Time;durP1;ratioP1;P1;durP2;ratioP2;P2;SDS_P1;SDS_P2;PMS_P1;PMS_P2;Temp;Humidity;BMP_temperature;BMP_pressure;BME280_temperature;BME280_humidity;BME280_pressure;Samples;Min_cycle;Max_cycle;Signal;HPM_P1;HPM_P2
2021/12/21 00:01:24;;;;;;;14.47;9.87;;;3.80;93.50;;;;;;5084139;28;20187;-68
2021/12/21 00:03:49;;;;;;;11.53;10.00;;;3.80;93.50;;;;;;5092450;28;20211;-68
2021/12/21 00:06:15;;;;;;;11.80;9.37;;;3.70;93.70;;;;;;5091467;28;20250;-68
2021/12/21 00:08:41;;;;;;;14.30;10.37;;;3.80;94.10;;;;;;5070237;28;20429;-68
2021/12/21 00:11:07;;;;;;;11.30;9.73;;;3.80;94.30;;;;;;5071657;28;20442;-69
2021/12/21 00:16:18;;;;;;;14.10;11.00;;;3.80;94.90;;;;;;5070436;28;20472;-72
2021/12/21 00:19:06;;;;;;;11.20;9.27;;;3.80;95.20;;;;;;5069411;28;20170;-68
2021/12/21 00:21:41;;;;;;;15.70;10.75;;;3.80;95.10;;;;;;5069373;28;20168;-68
2021/12/21 00:24:13;;;;;;;18.77;10.73;;;3.80;95.00;;;;;;5068456;28;20526;-68
2021/12/21 00:26:39;;;;;;;17.90;12.00;;;3.80;94.90;;;;;;5033510;28;20178;-72
2021/12/21 00:29:05;;;;;;;14.43;10.93;;;3.80;94.90;;;;;;5058129;28;20181;-68
2021/12/21 00:31:34;;;;;;;14.00;10.98;;;3.80;94.80;;;;;;5070737;28;20199;-68
2021/12/21 00:34:01;;;;;;;12.65;9.95;;;3.80;95.00;;;;;;5069425;28;20209;-69
2021/12/21 00:36:29;;;;;;;13.45;9.98;;;3.60;95.20;;;;;;5069539;28;20180;-74
2021/12/21 00:38:56;;;;;;;11.20;10.00;;;3.60;95.40;;;;;;5068315;28;20176;-81
2021/12/21 00:41:24;;;;;;;11.88;9.85;;;3.70;95.30;;;;;;5069591;28;20237;-68
2021/12/21 00:43:51;;;;;;;10.38;8.82;;;3.80;95.00;;;;;;5070108;28;20189;-68
2021/12/21 00:46:17;;;;;;;11.65;9.50;;;3.70;94.60;;;;;;5069399;28;20279;-68
2021/12/21 00:48:55;;;;;;;10.87;9.77;;;3.70;94.00;;;;;;5070442;28;20271;-69
2021/12/21 00:51:24;;;;;;;11.45;9.40;;;3.70;93.90;;;;;;5071265;28;20384;-67
2021/12/21 00:53:50;;;;;;;12.13;8.40;;;3.60;93.80;;;;;;5070910;28;20598;-70
2021/12/21 00:56:15;;;;;;;15.33;9.03;;;3.60;93.80;;;;;;5064222;28;20189;-68
2021/12/21 00:58:41;;;;;;;10.17;9.17;;;3.60;93.80;;;;;;5070046;28;20407;-68
2021/12/21 01:01:07;;;;;;;11.67;9.00;;;3.60;93.80;;;;;;5069870;28;20188;-68
2021/12/21 01:03:41;;;;;;;10.73;8.40;;;3.60;93.70;;;;;;5070381;28;20201;-68
2021/12/21 01:08:54;;;;;;;13.38;9.52;;;3.60;93.90;;;;;;5070462;28;20183;-68
2021/12/21 01:11:26;;;;;;;8.98;8.07;;;3.60;93.70;;;;;;5068784;28;20172;-73
2021/12/21 01:16:36;;;;;;;11.50;9.20;;;3.50;93.30;;;;;;5068785;28;20177;-68
2021/12/21 01:22:06;;;;;;;11.30;8.77;;;3.40;93.50;;;;;;5063887;28;20282;-69
2021/12/21 01:32:31;;;;;;;12.30;9.80;;;3.40;93.80;;;;;;5069967;28;20176;-68
2021/12/21 01:40:17;;;;;;;14.27;9.68;;;3.40;93.90;;;;;;5074829;28;20219;-68
2021/12/21 01:42:50;;;;;;;10.80;8.65;;;3.40;93.80;;;;;;5053330;28;20199;-68
2021/12/21 01:50:52;;;;;;;11.30;9.80;;;3.30;93.20;;;;;;5055140;28;20190;-68
2021/12/21 01:53:17;;;;;;;9.85;8.13;;;3.30;93.00;;;;;;5066864;28;20216;-69
2021/12/21 01:55:43;;;;;;;11.37;9.10;;;3.20;93.00;;;;;;5073784;28;20183;-68
2021/12/21 01:58:10;;;;;;;12.60;9.60;;;3.20;93.00;;;;;;5072884;28;20481;-69
2021/12/21 02:00:38;;;;;;;14.07;9.18;;;3.20;92.80;;;;;;5073804;28;20426;-69
2021/12/21 02:03:05;;;;;;;11.57;9.10;;;3.20;93.00;;;;;;5074043;28;20180;-69
2021/12/21 02:05:31;;;;;;;11.73;9.00;;;3.20;93.00;;;;;;5074510;28;20191;-69
2021/12/21 02:07:57;;;;;;;10.90;9.00;;;3.10;93.10;;;;;;5074019;28;20184;-75
2021/12/21 02:10:23;;;;;;;11.40;9.33;;;3.10;93.00;;;;;;5074138;28;20195;-69
2021/12/21 02:12:49;;;;;;;16.43;10.93;;;3.10;93.10;;;;;;5074114;28;20914;-69
2021/12/21 02:15:15;;;;;;;18.75;12.60;;;3.10;93.40;;;;;;5072559;28;20438;-69
2021/12/21 02:20:37;;;;;;;16.00;11.60;;;3.10;94.20;;;;;;5073502;28;20248;-68
2021/12/21 02:23:11;;;;;;;15.75;11.35;;;3.10;94.30;;;;;;5073803;28;20183;-76
2021/12/21 02:30:38;;;;;;;26.10;13.50;;;3.00;94.80;;;;;;5074506;28;20413;-69
2021/12/21 02:33:04;;;;;;;19.67;12.85;;;3.00;94.80;;;;;;5072078;28;20572;-72
2021/12/21 02:35:30;;;;;;;20.53;12.47;;;3.00;95.00;;;;;;5056065;28;20260;-69
2021/12/21 02:37:56;;;;;;;18.02;12.27;;;3.00;95.00;;;;;;5074282;28;20449;-69
2021/12/21 02:40:21;;;;;;;17.90;12.10;;;3.00;95.00;;;;;;5073072;28;20242;-69
2021/12/21 02:42:47;;;;;;;14.87;11.50;;;2.90;94.70;;;;;;5073809;28;20393;-69
2021/12/21 02:45:13;;;;;;;16.37;11.13;;;3.00;94.80;;;;;;5073151;28;20258;-69
2021/12/21 02:47:39;;;;;;;12.50;10.57;;;2.90;94.50;;;;;;5073621;28;20177;-68
2021/12/21 02:50:06;;;;;;;11.30;10.10;;;2.90;94.00;;;;;;5071587;28;20462;-72
2021/12/21 02:52:33;;;;;;;12.10;10.43;;;2.90;94.00;;;;;;5074161;28;20524;-69
2021/12/21 02:55:00;;;;;;;12.73;8.55;;;2.90;93.90;;;;;;5073524;28;20200;-68
2021/12/21 02:57:26;;;;;;;13.05;9.65;;;2.90;94.00;;;;;;5073531;28;20227;-69
2021/12/21 02:59:51;;;;;;;9.00;8.10;;;2.90;93.90;;;;;;5073800;28;20256;-69
2021/12/21 03:02:17;;;;;;;11.17;8.47;;;2.90;93.60;;;;;;5072396;28;20431;-69
2021/12/21 03:04:45;;;;;;;13.27;9.10;;;2.90;93.40;;;;;;5073406;28;20663;-69
2021/12/21 03:14:54;;;;;;;10.70;7.80;;;2.90;93.60;;;;;;5064205;28;20306;-69
2021/12/21 03:17:21;;;;;;;9.93;8.50;;;2.90;93.40;;;;;;5072632;28;20189;-69
2021/12/21 03:19:47;;;;;;;14.75;8.85;;;3.00;93.30;;;;;;5071546;28;20650;-69
2021/12/21 03:22:14;;;;;;;9.63;8.60;;;2.90;93.50;;;;;;5072493;28;20180;-71
2021/12/21 03:24:42;;;;;;;9.45;8.30;;;3.00;93.80;;;;;;5073072;28;20222;-69
2021/12/21 03:27:08;;;;;;;10.43;8.15;;;2.90;93.80;;;;;;5071106;28;20208;-69
2021/12/21 03:29:34;;;;;;;13.43;9.52;;;2.90;93.90;;;;;;5072952;28;20176;-69
2021/12/21 03:32:01;;;;;;;9.80;8.50;;;2.90;93.50;;;;;;5072233;28;20226;-69
2021/12/21 03:34:28;;;;;;;9.95;8.00;;;2.90;93.50;;;;;;5070843;28;20466;-69
2021/12/21 03:36:54;;;;;;;11.23;7.93;;;2.90;93.60;;;;;;5072839;28;20567;-69
2021/12/21 03:39:21;;;;;;;10.60;7.85;;;2.90;93.40;;;;;;5072094;28;20176;-69
2021/12/21 03:41:53;;;;;;;11.90;8.40;;;2.80;93.30;;;;;;5071769;28;20214;-68
2021/12/21 03:44:20;;;;;;;11.35;7.45;;;2.80;93.30;;;;;;5071958;28;20195;-69
2021/12/21 03:46:49;;;;;;;7.70;7.00;;;2.80;93.00;;;;;;5072976;28;20225;-68
2021/12/21 03:51:49;;;;;;;11.30;8.52;;;2.80;92.70;;;;;;5072570;28;20169;-68
2021/12/21 03:54:14;;;;;;;9.93;7.00;;;2.80;92.70;;;;;;5071527;28;20743;-69
2021/12/21 03:56:41;;;;;;;14.33;7.70;;;2.80;92.70;;;;;;5072244;28;20173;-72
2021/12/21 03:59:08;;;;;;;8.82;7.50;;;2.70;92.70;;;;;;5071697;28;20595;-84
2021/12/21 04:01:33;;;;;;;9.23;6.70;;;2.70;92.60;;;;;;5072313;28;20579;-69
2021/12/21 04:03:59;;;;;;;8.10;6.70;;;2.70;92.90;;;;;;5070845;28;20271;-68
2021/12/21 04:06:25;;;;;;;12.03;7.87;;;2.70;92.90;;;;;;5051702;28;20255;-68
2021/12/21 04:08:51;;;;;;;9.37;6.80;;;2.70;92.70;;;;;;5050699;28;20432;-68
2021/12/21 04:11:16;;;;;;;7.33;6.50;;;2.60;92.60;;;;;;5055426;28;20187;-68
2021/12/21 04:13:42;;;;;;;8.73;7.83;;;2.60;92.60;;;;;;5070962;28;20701;-68
2021/12/21 04:16:08;;;;;;;11.17;7.73;;;2.60;92.60;;;;;;5071564;28;20537;-74
2021/12/21 04:18:38;;;;;;;8.27;7.30;;;2.60;92.50;;;;;;5071886;28;20180;-68
2021/12/21 04:21:06;;;;;;;7.90;7.10;;;2.50;92.10;;;;;;5072514;28;20166;-68
2021/12/21 04:23:32;;;;;;;7.90;6.60;;;2.20;91.90;;;;;;5072249;28;20241;-68
2021/12/21 04:25:58;;;;;;;8.60;6.67;;;2.50;92.20;;;;;;5070062;28;20198;-68
2021/12/21 04:28:24;;;;;;;8.00;7.20;;;2.50;92.00;;;;;;5071538;28;20462;-68
2021/12/21 04:30:49;;;;;;;10.70;7.10;;;2.40;91.90;;;;;;5071682;28;20541;-68
2021/12/21 04:33:15;;;;;;;9.43;7.27;;;2.40;92.10;;;;;;5070630;28;20214;-68
2021/12/21 04:35:41;;;;;;;11.13;7.73;;;2.40;92.20;;;;;;5071874;28;20195;-68
2021/12/21 04:38:43;;;;;;;8.13;7.00;;;2.40;92.30;;;;;;5069920;28;20584;-74
2021/12/21 04:41:09;;;;;;;16.02;7.22;;;2.40;92.30;;;;;;5067461;28;20276;-68
2021/12/21 04:43:35;;;;;;;9.38;7.30;;;2.10;92.20;;;;;;5071675;28;20686;-68
2021/12/21 04:46:01;;;;;;;9.35;7.30;;;2.40;92.70;;;;;;5070587;28;20259;-68
2021/12/21 04:48:27;;;;;;;8.73;7.20;;;2.40;92.90;;;;;;5069986;28;20417;-68
2021/12/21 04:50:53;;;;;;;7.77;6.97;;;2.40;92.60;;;;;;5067210;28;20424;-68
2021/12/21 04:53:19;;;;;;;11.88;7.78;;;2.40;92.30;;;;;;5070968;28;20294;-68
2021/12/21 04:55:45;;;;;;;8.85;7.95;;;2.30;92.20;;;;;;5069994;28;20176;-68
2021/12/21 04:58:11;;;;;;;8.03;7.23;;;2.40;92.70;;;;;;5071168;28;20588;-74
2021/12/21 05:00:38;;;;;;;8.85;7.40;;;2.40;92.50;;;;;;5071960;28;20177;-68
2021/12/21 05:03:04;;;;;;;8.20;7.40;;;2.40;92.50;;;;;;5070920;28;20184;-68
2021/12/21 05:05:30;;;;;;;15.45;8.60;;;2.40;92.70;;;;;;5070908;28;20782;-68
2021/12/21 05:11:00;;;;;;;8.25;7.03;;;2.40;92.80;;;;;;5062500;28;20188;-68
2021/12/21 05:13:28;;;;;;;7.25;6.50;;;2.40;92.70;;;;;;5071998;28;20206;-68
2021/12/21 05:15:54;;;;;;;12.32;7.57;;;2.40;92.70;;;;;;5074572;28;20186;-68
2021/12/21 05:18:20;;;;;;;9.23;7.50;;;2.30;93.00;;;;;;5073360;28;20180;-68
2021/12/21 05:20:46;;;;;;;8.07;7.10;;;2.40;93.50;;;;;;5073179;28;20180;-68
2021/12/21 05:23:12;;;;;;;7.43;6.70;;;2.40;93.70;;;;;;5060834;28;20207;-71
2021/12/21 05:25:39;;;;;;;12.43;7.43;;;2.30;93.30;;;;;;5071001;28;20430;-68
2021/12/21 05:28:07;;;;;;;10.93;7.60;;;2.30;93.20;;;;;;5075214;28;20267;-67
2021/12/21 05:30:34;;;;;;;8.93;8.00;;;2.40;93.10;;;;;;5073351;28;20637;-68
2021/12/21 05:33:01;;;;;;;7.22;6.53;;;2.30;92.80;;;;;;5075292;28;20179;-67
2021/12/21 05:35:27;;;;;;;7.95;6.82;;;2.40;92.70;;;;;;5074927;28;20194;-67
2021/12/21 05:37:57;;;;;;;9.20;8.13;;;2.40;92.80;;;;;;5072862;28;20172;-68
2021/12/21 05:40:30;;;;;;;8.20;7.40;;;2.40;93.10;;;;;;5054319;28;20178;-68
2021/12/21 05:42:56;;;;;;;7.88;7.05;;;2.40;93.60;;;;;;5056633;28;20176;-68
2021/12/21 05:45:22;;;;;;;8.53;7.67;;;2.40;93.30;;;;;;5055414;28;20297;-67
2021/12/21 05:47:47;;;;;;;9.97;7.40;;;2.30;93.30;;;;;;5055482;28;20184;-67
2021/12/21 05:50:16;;;;;;;8.90;8.00;;;2.30;93.20;;;;;;5061966;28;20187;-74
2021/12/21 05:52:43;;;;;;;8.20;6.82;;;2.30;92.70;;;;;;5074837;28;20263;-68
2021/12/21 05:55:10;;;;;;;11.80;7.97;;;2.30;92.70;;;;;;5075123;28;20220;-68
2021/12/21 05:57:36;;;;;;;8.90;7.95;;;2.30;92.60;;;;;;5074931;28;20188;-68
2021/12/21 06:00:08;;;;;;;9.40;7.03;;;2.30;92.50;;;;;;5075146;28;20644;-68
2021/12/21 06:02:33;;;;;;;8.65;7.72;;;2.30;92.60;;;;;;5074271;28;20755;-68
2021/12/21 06:04:59;;;;;;;9.03;7.87;;;2.30;92.80;;;;;;5061007;28;20311;-69
2021/12/21 06:07:25;;;;;;;8.37;7.37;;;2.30;92.70;;;;;;5054011;28;20312;-68
2021/12/21 06:09:51;;;;;;;9.83;8.13;;;2.30;92.90;;;;;;5054502;28;20543;-67
2021/12/21 06:23:24;;;;;;;8.57;7.65;;;2.20;92.20;;;;;;5065687;28;20180;-68
2021/12/21 06:25:59;;;;;;;10.55;7.53;;;2.20;92.20;;;;;;5054519;28;20186;-68
2021/12/21 06:28:25;;;;;;;9.43;7.88;;;2.20;92.00;;;;;;5054251;28;20217;-69
2021/12/21 06:30:51;;;;;;;12.70;7.95;;;2.20;91.80;;;;;;5061890;28;20180;-68
2021/12/21 06:33:18;;;;;;;9.07;7.35;;;2.30;91.90;;;;;;5053424;28;20757;-69
2021/12/21 06:35:44;;;;;;;13.93;7.90;;;2.10;92.00;;;;;;5054412;28;20217;-69
2021/12/21 06:38:10;;;;;;;11.68;8.73;;;2.10;92.30;;;;;;5056490;28;20184;-69
2021/12/21 06:40:36;;;;;;;16.25;9.32;;;2.10;92.50;;;;;;5073911;28;20180;-68
2021/12/21 06:43:03;;;;;;;15.02;9.40;;;2.10;92.40;;;;;;5074374;28;20183;-67
2021/12/21 06:53:27;;;;;;;12.43;9.23;;;2.10;92.60;;;;;;5053639;28;20201;-68
2021/12/21 06:55:53;;;;;;;13.25;9.43;;;2.20;93.00;;;;;;5054138;28;20185;-68
2021/12/21 06:58:18;;;;;;;11.90;10.37;;;2.20;93.00;;;;;;5063354;28;20187;-69
2021/12/21 07:00:46;;;;;;;12.27;11.00;;;2.10;92.70;;;;;;5059099;28;20525;-67
2021/12/21 07:03:13;;;;;;;22.15;11.88;;;2.10;92.60;;;;;;5053685;28;20430;-68
2021/12/21 07:05:40;;;;;;;11.73;10.15;;;2.10;92.40;;;;;;5055406;28;20188;-68
2021/12/21 07:08:13;;;;;;;15.20;10.40;;;2.10;92.30;;;;;;5053572;28;20207;-70
2021/12/21 07:10:40;;;;;;;12.15;10.27;;;2.00;92.60;;;;;;5052804;28;20165;-69
2021/12/21 07:18:34;;;;;;;15.20;12.60;;;2.10;93.30;;;;;;5072248;28;20936;-69
2021/12/21 07:21:02;;;;;;;16.10;13.43;;;2.10;93.10;;;;;;5072939;28;20237;-68
2021/12/21 07:23:30;;;;;;;13.30;12.00;;;2.20;92.90;;;;;;5072391;28;20184;-69
2021/12/21 07:25:55;;;;;;;14.63;11.43;;;2.20;92.80;;;;;;5073222;28;20183;-69
2021/12/21 07:28:21;;;;;;;13.50;11.70;;;2.30;92.50;;;;;;5068107;28;20172;-69
2021/12/21 07:30:47;;;;;;;13.82;11.20;;;2.20;92.30;;;;;;5073393;28;20192;-69
2021/12/21 07:33:17;;;;;;;13.73;10.80;;;2.20;92.30;;;;;;5073308;28;20175;-69
2021/12/21 07:35:43;;;;;;;13.00;10.70;;;2.20;92.10;;;;;;5072540;28;20416;-69
2021/12/21 07:38:10;;;;;;;15.10;11.05;;;2.20;92.10;;;;;;5073349;28;20249;-69
2021/12/21 07:40:37;;;;;;;15.00;11.70;;;2.10;92.00;;;;;;5072399;28;20522;-68
2021/12/21 07:43:03;;;;;;;14.88;10.82;;;2.10;92.00;;;;;;5069490;28;20176;-69
2021/12/21 07:45:29;;;;;;;16.77;10.98;;;2.10;92.40;;;;;;5055134;28;20224;-68
2021/12/21 07:47:55;;;;;;;13.93;11.13;;;2.10;92.80;;;;;;5073363;28;20189;-68
2021/12/21 07:50:21;;;;;;;16.13;10.32;;;2.10;92.90;;;;;;5072464;28;20248;-69
2021/12/21 07:52:47;;;;;;;13.90;9.60;;;2.10;92.80;;;;;;5071903;28;20624;-69
2021/12/21 07:55:13;;;;;;;13.70;10.00;;;2.10;92.80;;;;;;5072767;28;20505;-68
2021/12/21 07:57:39;;;;;;;13.10;9.50;;;2.20;92.90;;;;;;5072691;28;20257;-68
2021/12/21 08:00:10;;;;;;;14.57;10.03;;;2.10;93.00;;;;;;5072761;28;20215;-69
2021/12/21 08:02:39;;;;;;;14.13;9.93;;;2.10;92.60;;;;;;5072670;28;20402;-68
2021/12/21 08:05:07;;;;;;;13.30;10.30;;;2.10;92.60;;;;;;5072479;28;20262;-69
2021/12/21 08:07:38;;;;;;;14.95;11.23;;;2.20;92.70;;;;;;5071784;28;20176;-69
2021/12/21 08:10:18;;;;;;;15.43;11.23;;;2.10;92.90;;;;;;5073212;28;20167;-68
2021/12/21 08:12:45;;;;;;;15.48;11.75;;;2.20;93.00;;;;;;5071489;28;20165;-69
2021/12/21 08:15:10;;;;;;;15.57;11.82;;;2.20;93.00;;;;;;5071746;28;20301;-70
2021/12/21 08:17:36;;;;;;;16.20;13.13;;;2.10;93.20;;;;;;5054216;28;20593;-69
2021/12/21 08:20:03;;;;;;;12.40;9.70;;;2.20;93.60;;;;;;5051209;28;20176;-68
2021/12/21 08:22:28;;;;;;;15.55;11.25;;;2.20;93.40;;;;;;5063955;28;20180;-69
2021/12/21 08:24:54;;;;;;;15.27;10.37;;;2.20;93.70;;;;;;5071439;28;20242;-69
2021/12/21 08:27:20;;;;;;;14.07;10.40;;;2.20;93.70;;;;;;5072099;28;20182;-69
2021/12/21 08:29:46;;;;;;;16.50;10.27;;;2.20;93.70;;;;;;5072540;28;20175;-69
2021/12/21 08:32:12;;;;;;;15.67;10.40;;;2.20;93.60;;;;;;5071977;28;20242;-69
2021/12/21 08:34:38;;;;;;;17.73;9.85;;;2.20;93.60;;;;;;5071613;28;20215;-69
2021/12/21 08:37:04;;;;;;;17.03;9.80;;;2.20;93.60;;;;;;5072576;28;20202;-69
2021/12/21 08:39:38;;;;;;;14.55;10.18;;;2.30;93.70;;;;;;5071296;28;20453;-70
2021/12/21 08:42:11;;;;;;;15.02;9.63;;;2.30;93.80;;;;;;5072754;28;20169;-71
2021/12/21 08:44:37;;;;;;;12.50;9.18;;;2.30;94.10;;;;;;5071736;28;20694;-70
2021/12/21 08:47:03;;;;;;;11.20;9.87;;;2.30;94.10;;;;;;5075614;28;20257;-70
2021/12/21 08:49:30;;;;;;;12.98;10.43;;;2.30;94.10;;;;;;5075865;28;20473;-70
2021/12/21 08:51:56;;;;;;;11.75;8.82;;;2.40;94.30;;;;;;5075885;28;20183;-71
2021/12/21 08:54:23;;;;;;;13.68;10.20;;;2.40;94.50;;;;;;5075494;28;20203;-71
2021/12/21 08:56:49;;;;;;;12.85;9.25;;;2.60;94.90;;;;;;5075160;28;20241;-71
2021/12/21 08:59:16;;;;;;;13.63;9.55;;;2.90;95.00;;;;;;5075200;28;20184;-71
2021/12/21 09:01:46;;;;;;;11.88;8.95;;;3.50;94.30;;;;;;5075774;28;20222;-71
2021/12/21 09:04:14;;;;;;;11.93;8.27;;;4.30;93.50;;;;;;5076315;28;20180;-71
2021/12/21 09:06:40;;;;;;;16.42;10.02;;;5.30;92.00;;;;;;5075659;28;20176;-71
2021/12/21 09:09:06;;;;;;;12.40;9.90;;;6.20;89.00;;;;;;5076163;28;20269;-71
2021/12/21 09:11:32;;;;;;;17.10;10.50;;;7.20;85.10;;;;;;5075433;28;20407;-71
2021/12/21 09:13:58;;;;;;;14.00;10.03;;;8.10;80.50;;;;;;5075849;28;20219;-72
2021/12/21 09:16:23;;;;;;;12.23;10.53;;;9.00;76.60;;;;;;5075552;28;20548;-72
2021/12/21 09:18:49;;;;;;;17.00;11.93;;;9.90;71.70;;;;;;5076122;28;20219;-71
2021/12/21 09:21:15;;;;;;;13.03;11.03;;;10.80;65.80;;;;;;5074808;28;20177;-71
2021/12/21 09:23:41;;;;;;;13.00;9.60;;;11.60;61.90;;;;;;5075653;28;20201;-71
2021/12/21 09:26:07;;;;;;;16.67;10.47;;;12.40;59.90;;;;;;5074723;28;20207;-70
2021/12/21 09:28:33;;;;;;;12.10;10.10;;;12.70;57.60;;;;;;5075619;28;20416;-72
2021/12/21 09:30:59;;;;;;;12.93;11.57;;;12.90;56.10;;;;;;5076125;28;20177;-71
2021/12/21 09:33:24;;;;;;;12.90;10.87;;;13.30;55.60;;;;;;5057209;28;20517;-72
2021/12/21 09:35:52;;;;;;;12.00;9.80;;;13.90;54.60;;;;;;5075981;28;20511;-71
2021/12/21 09:38:18;;;;;;;12.90;9.80;;;14.50;52.90;;;;;;5074373;28;20540;-70
2021/12/21 09:40:44;;;;;;;12.53;10.37;;;15.20;51.60;;;;;;5073748;28;20491;-71
2021/12/21 09:43:11;;;;;;;11.50;10.40;;;15.40;50.40;;;;;;5075783;28;20415;-71
2021/12/21 09:45:39;;;;;;;16.23;11.30;;;15.30;49.60;;;;;;5074993;28;20455;-71
2021/12/21 09:48:06;;;;;;;11.30;10.10;;;14.90;49.40;;;;;;5075598;28;20414;-71
2021/12/21 09:50:33;;;;;;;12.03;10.67;;;14.70;49.70;;;;;;5074857;28;20952;-71
2021/12/21 09:52:59;;;;;;;11.53;10.40;;;14.60;50.20;;;;;;5075224;28;20410;-71
2021/12/21 09:55:25;;;;;;;12.80;10.30;;;14.60;50.70;;;;;;5074621;28;20474;-75
2021/12/21 09:57:52;;;;;;;11.23;9.93;;;15.00;50.50;;;;;;5074966;28;20188;-71
2021/12/21 10:00:44;;;;;;;11.03;9.83;;;15.40;50.20;;;;;;5074015;28;20412;-71
2021/12/21 10:03:10;;;;;;;11.63;9.87;;;15.90;49.10;;;;;;5073279;28;20960;-71
2021/12/21 10:05:42;;;;;;;11.20;10.10;;;16.60;48.40;;;;;;5074884;28;20422;-71
2021/12/21 10:08:17;;;;;;;11.37;10.00;;;17.30;46.80;;;;;;5074980;28;20777;-71
2021/12/21 10:10:48;;;;;;;10.93;9.47;;;17.30;45.60;;;;;;5073437;28;20395;-71
2021/12/21 10:13:20;;;;;;;11.67;10.23;;;17.20;45.80;;;;;;5075144;28;20423;-71
2021/12/21 10:16:06;;;;;;;12.50;10.97;;;17.60;45.60;;;;;;5074515;28;20439;-71
2021/12/21 10:18:36;;;;;;;12.53;11.13;;;18.40;44.70;;;;;;5073797;28;20411;-71
2021/12/21 10:21:04;;;;;;;11.90;10.67;;;19.00;43.30;;;;;;5072264;28;20430;-71
2021/12/21 10:23:36;;;;;;;15.73;12.10;;;19.60;42.90;;;;;;5072836;28;20840;-72
2021/12/21 10:26:06;;;;;;;12.17;10.97;;;19.70;42.10;;;;;;5071427;28;20457;-71
2021/12/21 10:28:43;;;;;;;12.17;10.40;;;20.00;41.70;;;;;;5073342;28;20469;-71
2021/12/21 10:31:13;;;;;;;12.20;10.97;;;20.10;42.00;;;;;;5070787;28;20439;-71
2021/12/21 10:33:44;;;;;;;13.70;10.53;;;20.10;41.40;;;;;;5072724;28;20455;-72
2021/12/21 10:36:10;;;;;;;11.77;10.67;;;20.10;40.80;;;;;;5073291;28;20412;-71
2021/12/21 10:38:58;;;;;;;9.93;9.00;;;20.00;40.60;;;;;;5072932;28;20641;-72
2021/12/21 10:41:43;;;;;;;10.70;9.90;;;19.80;41.00;;;;;;5070190;28;20430;-71
2021/12/21 10:44:16;;;;;;;11.00;9.90;;;19.50;41.90;;;;;;5071131;28;20427;-71
2021/12/21 10:46:47;;;;;;;12.37;10.33;;;19.40;41.60;;;;;;5069873;28;20550;-71
2021/12/21 10:49:16;;;;;;;11.77;10.57;;;19.10;42.10;;;;;;5073788;28;20408;-71
2021/12/21 10:52:07;;;;;;;11.50;10.40;;;18.80;42.50;;;;;;5072294;28;20473;-71
2021/12/21 10:54:36;;;;;;;20.03;11.00;;;18.20;42.80;;;;;;5069894;28;20901;-71
2021/12/21 10:57:08;;;;;;;12.47;11.17;;;17.80;43.40;;;;;;5072828;28;20461;-71
2021/12/21 10:59:36;;;;;;;11.90;10.90;;;17.40;44.50;;;;;;5071781;28;20419;-71
2021/12/21 11:02:11;;;;;;;13.07;10.80;;;17.10;45.20;;;;;;5072946;28;20428;-71
2021/12/21 11:04:43;;;;;;;11.03;9.93;;;16.50;46.10;;;;;;5070473;28;20411;-70
2021/12/21 11:10:12;;;;;;;12.40;11.17;;;15.80;47.70;;;;;;5069836;28;20496;-70
2021/12/21 11:12:51;;;;;;;14.40;11.27;;;15.50;48.20;;;;;;5071703;28;20756;-70
2021/12/21 11:15:19;;;;;;;12.23;10.43;;;15.00;49.70;;;;;;5070897;28;20521;-70
2021/12/21 11:17:45;;;;;;;11.27;10.20;;;14.80;50.30;;;;;;5071714;28;20442;-71
2021/12/21 11:20:13;;;;;;;12.60;10.80;;;14.50;50.00;;;;;;5072739;28;20416;-71
2021/12/21 11:22:41;;;;;;;12.30;10.47;;;14.20;51.40;;;;;;5072939;28;20418;-70
2021/12/21 11:25:09;;;;;;;10.80;9.80;;;13.90;51.60;;;;;;5072747;28;20427;-72
2021/12/21 11:27:37;;;;;;;11.30;10.10;;;13.60;52.10;;;;;;5066181;28;20756;-71
2021/12/21 11:30:09;;;;;;;10.63;9.50;;;13.50;53.10;;;;;;5072296;28;20416;-70
2021/12/21 11:32:48;;;;;;;11.50;10.30;;;13.40;53.60;;;;;;5069939;28;20408;-71
2021/12/21 11:37:50;;;;;;;11.17;8.60;;;13.10;54.40;;;;;;5070952;28;20405;-71
2021/12/21 11:40:19;;;;;;;9.30;8.50;;;12.90;54.80;;;;;;5068369;28;20519;-70
2021/12/21 11:42:51;;;;;;;9.43;8.37;;;12.80;54.70;;;;;;5071699;28;20414;-70
2021/12/21 11:45:33;;;;;;;8.00;6.80;;;12.90;53.90;;;;;;5072186;28;20463;-70
2021/12/21 11:48:11;;;;;;;9.70;7.20;;;12.70;53.60;;;;;;5071637;28;20498;-71
2021/12/21 11:50:45;;;;;;;7.60;6.77;;;12.60;53.60;;;;;;5072291;28;20759;-70
2021/12/21 11:53:13;;;;;;;8.00;6.00;;;12.40;53.20;;;;;;5073271;28;20483;-70
2021/12/21 11:55:43;;;;;;;7.00;6.30;;;12.10;53.50;;;;;;5072817;28;20418;-70
2021/12/21 11:58:28;;;;;;;7.30;6.60;;;11.90;53.60;;;;;;5073904;28;20423;-70
2021/12/21 12:00:59;;;;;;;8.30;7.50;;;11.70;54.40;;;;;;5072222;28;20764;-70
2021/12/21 12:03:28;;;;;;;8.00;7.00;;;11.40;54.70;;;;;;5072762;28;20440;-70
2021/12/21 12:06:03;;;;;;;10.43;7.73;;;11.10;55.40;;;;;;5071463;28;20434;-70
2021/12/21 12:08:52;;;;;;;8.30;7.57;;;10.80;56.20;;;;;;5068448;28;20426;-70
2021/12/21 12:11:23;;;;;;;8.70;7.20;;;10.70;57.50;;;;;;5070059;28;20505;-70
2021/12/21 12:14:01;;;;;;;8.87;7.90;;;10.50;58.40;;;;;;5068142;28;20964;-71
2021/12/21 12:16:27;;;;;;;10.23;9.10;;;10.40;58.70;;;;;;5070341;28;20444;-70
2021/12/21 12:18:53;;;;;;;10.93;8.30;;;10.30;59.10;;;;;;5072045;28;20428;-71
2021/12/21 12:21:25;;;;;;;13.30;8.50;;;10.10;59.70;;;;;;5071145;28;20406;-70
2021/12/21 12:24:04;;;;;;;12.03;8.70;;;10.10;61.00;;;;;;5070738;28;20216;-70
2021/12/21 12:26:32;;;;;;;8.50;7.63;;;10.10;60.80;;;;;;5069739;28;20407;-70
2021/12/21 12:29:14;;;;;;;9.03;7.63;;;10.00;61.00;;;;;;5072055;28;20467;-70
2021/12/21 12:31:42;;;;;;;9.07;7.37;;;10.00;61.50;;;;;;5070785;28;20880;-70
2021/12/21 12:34:08;;;;;;;11.40;8.50;;;10.00;61.70;;;;;;5067328;28;20867;-70
2021/12/21 12:36:35;;;;;;;8.47;7.63;;;10.00;62.10;;;;;;5071519;28;20923;-71
2021/12/21 12:39:01;;;;;;;9.00;7.73;;;10.00;62.60;;;;;;5072151;28;20420;-70
2021/12/21 12:41:27;;;;;;;8.77;7.30;;;9.90;63.40;;;;;;5072611;28;20426;-70
2021/12/21 12:43:53;;;;;;;8.60;6.70;;;9.80;64.00;;;;;;5072338;28;20423;-70
2021/12/21 12:46:25;;;;;;;8.30;7.37;;;9.70;64.80;;;;;;5070948;28;20237;-70
2021/12/21 12:48:51;;;;;;;8.93;7.90;;;9.70;65.80;;;;;;5072120;28;20182;-70
2021/12/21 12:51:36;;;;;;;9.50;8.30;;;9.70;66.70;;;;;;5071094;28;20908;-70
2021/12/21 12:54:14;;;;;;;9.40;7.47;;;9.60;67.00;;;;;;5072042;28;20455;-70
2021/12/21 12:56:40;;;;;;;10.37;7.70;;;9.40;67.60;;;;;;5070432;28;20428;-70
2021/12/21 12:59:06;;;;;;;12.83;9.00;;;9.00;69.10;;;;;;5070185;28;20520;-71
2021/12/21 13:01:39;;;;;;;8.67;7.77;;;9.00;70.80;;;;;;5070486;28;20411;-71
2021/12/21 13:04:10;;;;;;;10.20;7.80;;;9.10;71.50;;;;;;5071921;28;20172;-70
2021/12/21 13:06:38;;;;;;;9.67;7.67;;;9.10;71.60;;;;;;5069968;28;20939;-70
2021/12/21 13:09:09;;;;;;;9.47;7.63;;;9.20;72.10;;;;;;5070895;28;20958;-68
2021/12/21 13:11:42;;;;;;;9.60;8.20;;;9.20;72.30;;;;;;5065739;28;20777;-68
2021/12/21 13:14:13;;;;;;;9.83;8.30;;;9.20;72.50;;;;;;5071779;28;20471;-68
2021/12/21 13:16:41;;;;;;;9.40;7.63;;;9.20;72.20;;;;;;5071049;28;20422;-68
2021/12/21 13:19:10;;;;;;;12.30;8.20;;;9.20;73.00;;;;;;5071557;28;20423;-68
2021/12/21 13:21:44;;;;;;;12.17;8.83;;;9.20;73.00;;;;;;5070696;28;20426;-68
2021/12/21 13:24:18;;;;;;;8.27;7.20;;;9.20;72.40;;;;;;5067719;28;20857;-68
2021/12/21 13:26:51;;;;;;;7.97;7.20;;;9.10;72.60;;;;;;5070979;28;20395;-68
2021/12/21 13:29:22;;;;;;;8.20;6.93;;;9.10;72.00;;;;;;5069763;28;20403;-68
2021/12/21 13:31:54;;;;;;;9.30;8.40;;;9.10;71.50;;;;;;5070059;28;20494;-68
2021/12/21 13:34:21;;;;;;;8.40;7.70;;;9.00;71.90;;;;;;5074164;28;21009;-68
2021/12/21 13:36:55;;;;;;;7.57;6.87;;;9.00;73.00;;;;;;5074609;28;20504;-69
2021/12/21 13:39:44;;;;;;;7.10;6.40;;;8.90;71.70;;;;;;5075135;28;20414;-71
2021/12/21 13:42:18;;;;;;;6.80;6.30;;;8.50;71.20;;;;;;5072637;28;20437;-68
2021/12/21 13:44:53;;;;;;;10.27;6.17;;;8.30;72.70;;;;;;5074059;28;20414;-72
2021/12/21 13:47:20;;;;;;;6.27;5.77;;;7.90;72.50;;;;;;5073542;28;20424;-72
2021/12/21 13:49:54;;;;;;;7.23;5.20;;;7.90;74.20;;;;;;5073595;28;20439;-72
2021/12/21 13:52:21;;;;;;;6.87;5.70;;;7.60;73.50;;;;;;5073666;28;20514;-73
2021/12/21 13:54:47;;;;;;;5.10;4.60;;;7.40;73.70;;;;;;5074527;28;20461;-73
2021/12/21 13:57:17;;;;;;;6.77;5.83;;;7.40;75.20;;;;;;5074906;28;20547;-72
2021/12/21 13:59:46;;;;;;;7.50;5.30;;;7.60;76.10;;;;;;5074205;28;20180;-72
2021/12/21 14:02:31;;;;;;;6.10;5.57;;;7.60;76.70;;;;;;5074973;28;20505;-72
2021/12/21 14:05:02;;;;;;;9.63;6.37;;;7.60;75.70;;;;;;5075425;28;20873;-72
2021/12/21 14:07:33;;;;;;;6.30;5.70;;;7.40;75.90;;;;;;5073808;28;20801;-72
2021/12/21 14:10:21;;;;;;;7.73;6.37;;;7.00;77.70;;;;;;5080483;28;20434;-72
2021/12/21 14:12:59;;;;;;;6.47;5.87;;;7.00;79.00;;;;;;5065535;28;20749;-72
2021/12/21 14:15:38;;;;;;;7.20;6.60;;;7.00;79.50;;;;;;5061788;28;20993;-72